Airfield :
LOGIN :

Register | Disclaimer

   EN    FR    IT 

 










Legend :    VFR   Marginal VFR   IFR   Intensive IFR   Very Intensive IFR
Visi :
Ceiling :
>= 8 km
>= 3000ft
5 to 8 km
1000 to 3000 ft
1500m to 5 km
500 to 1000 ft
800 to 1500m
200 to 500 ft
< 800m
< 200 ft
Symbols :   Thunderstorms  Fog  Heavy snow  Heavy precipitations  Wind > 20 kt
SIGMETs :     Misc.  Thunderstorms  Icing  Turbulence  Mountain Waves  Volcanic Ashes







- Airport Elevation : 49 ft
- IATA code : GLZ


EHGR - Gilze-Rijen Airbase

CURRENT METAR :
  • 221055Z AUTO 18014KT 140V220 2800 R28/P3000U -SN FEW010 BKN025 BKN030 M02/M03 Q1005 BLACKYLO 17011KT 2000-SN BKN015 OVC019 TEMPO 0700 SN FEW003 BKN005 OVC007

EXPIRED METARs :
  • 221040Z AUTO 18012KT 140V220 1900 R28/2500N -SN FEW007 SCT010 BKN019 M02/M03 Q1005 BLACKYLO 17011KT 2000-SN BKN015 OVC019 TEMPO 0700 SN FEW003 BKN005 OVC007
  • 221025Z AUTO 18012KT 120V230 1800 R28/2100U -SN FEW011 BKN018 OVC021 M02/M03 Q1005 YLO 17011KT 2000-SN BKN015 OVC019 TEMPO 0700 SN FEW003 BKN005 OVC007
  • 221014Z AUTO 18014KT 120V230 1800 R28/1400D -SN FEW006 BKN010 BKN016 M02/M03 Q1005 YLO 17011KT 2000-SN BKN015 OVC019 TEMPO 0700 SN FEW003 BKN005 OVC007
  • 220956Z AUTO 18014KT 140V230 1200 R28/2800D -SN FEW007 SCT015 OVC019 M02/M04 Q1005 AMB 17011KT 2000-SN BKN015 OVC019 TEMPO 0700 SN FEW003 BKN005 OVC007
  • 220955Z AUTO 18014KT 140V230 2300 R28/P3000N -SN FEW016 BKN019 OVC024 M02/M04 Q1005 YLO 17011KT 2000-SN BKN015 OVC019 TEMPO 0700 SN FEW003 BKN005 OVC007
  • 220940Z AUTO 18015KT 140V220 9000 HZ FEW019 SCT032 BKN036 M01/M05 Q1005 BLU 17010KT CAVOK BECMG 3500 -SN BKN007 BKN015
  • 220925Z AUTO 18013KT 080V220 9999 OVC064 M01/M05 Q1006 BLU 17010KT CAVOK BECMG 3500 -SN BKN007 BKN015
  • 220855Z AUTO 17012KT 130V230 9999 BKN080 OVC086 M02/M05 Q1006 BLU 17010KT CAVOK BECMG 3500 -SN BKN007 BKN015
  • 220825Z AUTO 17013KT 130V220 9999 FEW068 SCT084 BKN090 M02/M05 Q1006 BLU 17010KT CAVOK BECMG 3500 -SN BKN007 BKN015

TAF TAF EHGR
Valid from the 22 at 10:00 until the 22 at 22:00 UTC


220935Z 2210/2222 18013KT 1200 -SN FEW004 BKN006
TEMPO 2210/2215 0500 SN VV002
BECMG 2214/2216 20008KT 3000 BR BKN004
PROB30
TEMPO 2214/2222 0900 FZFG OVC002
No reported NOTAMs for that airfield.



MET'MAP, your aeronautical weather chart ! - Copyright ORBIFLY December 2007 - Disclaimer

ORBIFLY MET'MAP TEAM :

Programming & Development : Alexandra Zaïnal
Concept & Development : Baudouin d'Aumeries
Co-Development & Prog : Marc-Olivier Méhu
Technical & hardware support : Manuel Goepfert

Contact : metmap@orbifly.com




SOURCES & CREDITS :

   NOAA